Time;durP1;ratioP1;P1;durP2;ratioP2;P2;SDS_P1;SDS_P2;PMS_P1;PMS_P2;Temp;Humidity;BMP_temperature;BMP_pressure;BME280_temperature;BME280_humidity;BME280_pressure;Samples;Min_cycle;Max_cycle;Signal;HPM_P1;HPM_P2
2021/09/01 14:20:02;;;;;;;4.75;2.90;;;;;;;23.77;37.93;100669.88;805435;54;33959;-81
2021/09/01 14:20:51;;;;;;;5.20;3.35;;;;;;;23.57;38.04;100666.38;815929;46;20065;-79
2021/09/01 14:21:39;;;;;;;7.50;3.25;;;;;;;23.51;38.77;100658.03;815375;54;20042;-80
2021/09/01 14:22:25;;;;;;;5.65;3.38;;;;;;;23.53;38.72;100658.63;815097;54;20045;-82
2021/09/01 14:23:17;;;;;;;5.43;3.10;;;;;;;23.57;38.60;100661.75;815141;47;20041;-82
2021/09/01 14:24:04;;;;;;;5.57;3.22;;;;;;;23.56;38.90;100661.97;815486;54;20046;-80
2021/09/01 14:24:52;;;;;;;4.90;3.05;;;;;;;23.65;38.67;100667.00;815484;54;20065;-79
2021/09/01 14:25:38;;;;;;;4.45;2.80;;;;;;;23.67;38.77;100664.88;815214;47;20047;-79
2021/09/01 14:26:27;;;;;;;5.55;3.38;;;;;;;23.78;38.75;100660.63;815253;54;20048;-78
2021/09/01 14:27:13;;;;;;;4.70;3.10;;;;;;;23.84;38.61;100658.94;815263;54;20065;-79
2021/09/01 14:28:02;;;;;;;4.78;2.83;;;;;;;23.84;38.05;100665.22;815193;54;20041;-84
2021/09/01 14:28:57;;;;;;;4.43;2.90;;;;;;;23.76;37.29;100651.81;815356;47;20080;-79
2021/09/01 14:29:43;;;;;;;5.88;3.28;;;;;;;23.82;37.69;100656.41;815109;47;20038;-88
2021/09/01 14:30:32;;;;;;;4.85;2.80;;;;;;;23.89;37.63;100658.28;815164;47;20034;-82
2021/09/01 14:31:18;;;;;;;6.80;3.20;;;;;;;23.92;37.57;100661.41;814805;47;20030;-79
2021/09/01 14:32:07;;;;;;;4.82;2.88;;;;;;;23.88;37.25;100657.41;814599;47;20042;-79
2021/09/01 14:32:53;;;;;;;4.50;2.88;;;;;;;23.91;37.10;100664.31;814954;54;20058;-79
2021/09/01 14:33:42;;;;;;;5.43;2.92;;;;;;;23.87;36.88;100652.19;814488;54;20049;-78
2021/09/01 14:34:29;;;;;;;4.75;2.90;;;;;;;24.04;36.67;100652.56;815044;47;20101;-79
2021/09/01 14:35:18;;;;;;;11.52;3.20;;;;;;;24.02;36.41;100649.19;815175;54;20041;-82
2021/09/01 14:36:10;;;;;;;4.63;3.20;;;;;;;23.90;36.27;100646.31;815134;54;20069;-80
2021/09/01 14:36:56;;;;;;;5.43;3.22;;;;;;;23.84;36.84;100640.66;815306;47;20066;-80
2021/09/01 14:37:45;;;;;;;5.50;3.40;;;;;;;23.78;36.70;100649.72;815088;54;20071;-78
2021/09/01 14:38:34;;;;;;;4.80;2.95;;;;;;;23.88;36.42;100640.22;814949;47;20023;-80
2021/09/01 14:39:20;;;;;;;4.85;2.80;;;;;;;23.93;36.33;100641.25;815056;47;20090;-80
2021/09/01 14:40:10;;;;;;;4.80;2.95;;;;;;;23.93;36.39;100640.38;815222;47;20034;-84
2021/09/01 14:40:59;;;;;;;5.20;3.03;;;;;;;24.10;36.05;100638.84;815232;54;20043;-84
2021/09/01 14:41:45;;;;;;;4.93;3.20;;;;;;;24.15;36.61;100643.63;815233;54;20106;-84
2021/09/01 14:42:34;;;;;;;5.13;3.20;;;;;;;24.17;36.59;100648.91;815401;39;20972;-82
2021/09/01 14:43:21;;;;;;;4.93;3.10;;;;;;;24.27;36.09;100641.88;815282;47;20042;-82
2021/09/01 14:44:10;;;;;;;4.10;2.70;;;;;;;24.32;36.28;100643.94;815082;54;20754;-85
2021/09/01 14:44:56;;;;;;;4.97;3.13;;;;;;;24.24;36.93;100649.69;815348;47;21077;-83
2021/09/01 14:45:45;;;;;;;7.43;3.15;;;;;;;24.22;37.08;100638.97;815492;47;20042;-83
2021/09/01 14:46:31;;;;;;;5.55;3.50;;;;;;;24.05;36.84;100637.81;815241;54;20407;-79
2021/09/01 14:47:20;;;;;;;7.10;3.38;;;;;;;23.96;37.41;100637.25;815157;54;20030;-79
2021/09/01 14:48:06;;;;;;;4.97;2.92;;;;;;;23.78;37.41;100636.06;815058;47;20045;-78
2021/09/01 14:48:55;;;;;;;6.53;3.05;;;;;;;23.82;37.79;100645.47;815047;47;20080;-80
2021/09/01 14:49:41;;;;;;;5.07;3.15;;;;;;;23.82;37.46;100644.66;815129;54;20100;-78
2021/09/01 14:50:30;;;;;;;5.85;3.28;;;;;;;23.80;37.69;100650.34;815208;54;21006;-79
2021/09/01 14:51:18;;;;;;;5.22;3.10;;;;;;;23.87;37.45;100653.00;815080;54;20038;-79
2021/09/01 14:52:08;;;;;;;4.90;3.15;;;;;;;23.88;37.38;100656.59;814907;54;20034;-79
2021/09/01 14:52:54;;;;;;;5.03;3.15;;;;;;;23.84;37.45;100646.09;815119;47;20069;-79
2021/09/01 14:53:43;;;;;;;5.15;3.53;;;;;;;23.78;37.29;100649.72;815124;54;20762;-79
2021/09/01 14:54:30;;;;;;;5.28;3.25;;;;;;;23.77;37.53;100648.03;814997;54;20064;-79
2021/09/01 14:55:22;;;;;;;4.97;3.22;;;;;;;23.78;37.36;100648.88;815077;47;20034;-82
2021/09/01 14:56:09;;;;;;;4.43;2.65;;;;;;;23.76;37.86;100640.03;815083;47;20038;-83
2021/09/01 14:56:57;;;;;;;5.40;3.40;;;;;;;23.78;37.72;100643.41;818838;39;20713;-82
2021/09/01 14:58:06;;;;;;;6.00;3.15;;;;;;;23.58;37.77;100646.25;815016;54;20110;-80
2021/09/01 14:58:52;;;;;;;5.55;3.28;;;;;;;23.56;37.79;100643.75;815114;47;20038;-79
2021/09/01 14:59:41;;;;;;;4.45;2.90;;;;;;;23.66;37.93;100646.00;815011;47;20035;-79
2021/09/01 15:00:27;;;;;;;4.53;2.83;;;;;;;23.62;37.74;100639.28;815071;54;20117;-78
2021/09/01 15:01:16;;;;;;;5.35;3.17;;;;;;;23.56;38.09;100645.59;815547;46;20068;-83
2021/09/01 15:02:03;;;;;;;5.32;2.95;;;;;;;23.48;38.08;100647.53;815041;47;20050;-83
2021/09/01 15:02:52;;;;;;;5.30;3.25;;;;;;;23.49;38.37;100635.56;815198;54;20033;-86
2021/09/01 15:03:42;;;;;;;4.35;2.83;;;;;;;23.53;38.04;100641.44;815272;54;20118;-80
2021/09/01 15:04:28;;;;;;;7.15;3.10;;;;;;;23.53;38.15;100636.78;814918;54;20034;-79
2021/09/01 15:05:17;;;;;;;4.70;2.80;;;;;;;23.47;38.34;100632.22;814782;54;20119;-78
2021/09/01 15:06:03;;;;;;;5.38;2.72;;;;;;;23.58;38.03;100635.31;814921;54;20058;-82
2021/09/01 15:06:54;;;;;;;5.25;3.30;;;;;;;23.58;37.53;100633.41;814959;47;20090;-78
2021/09/01 15:07:40;;;;;;;5.25;2.90;;;;;;;23.61;38.00;100634.91;814963;54;20102;-78
2021/09/01 15:08:29;;;;;;;5.40;2.97;;;;;;;23.72;37.50;100630.63;814924;47;20879;-79
2021/09/01 15:09:15;;;;;;;4.45;2.70;;;;;;;23.76;37.52;100624.53;815382;54;20106;-80
2021/09/01 15:10:05;;;;;;;7.30;2.85;;;;;;;23.80;37.64;100625.78;815266;47;20038;-82
2021/09/01 15:10:51;;;;;;;4.70;2.55;;;;;;;23.81;37.42;100627.44;816184;47;20767;-80
2021/09/01 15:11:39;;;;;;;4.78;3.22;;;;;;;23.74;37.90;100632.09;819478;39;20432;-80
2021/09/01 15:12:25;;;;;;;5.07;3.55;;;;;;;23.64;37.63;100629.00;815434;54;20038;-77
2021/09/01 15:13:14;;;;;;;6.47;3.22;;;;;;;23.60;37.53;100641.41;815212;47;20034;-79
2021/09/01 15:14:01;;;;;;;6.97;3.10;;;;;;;23.66;37.63;100632.34;815202;47;21260;-79
2021/09/01 15:14:49;;;;;;;5.18;3.20;;;;;;;23.70;37.76;100628.13;814901;54;20051;-78
2021/09/01 15:15:35;;;;;;;5.47;3.25;;;;;;;23.74;37.85;100625.81;815100;54;20822;-80
2021/09/01 15:16:24;;;;;;;5.20;2.55;;;;;;;23.75;37.98;100622.03;815163;54;20068;-77
2021/09/01 15:17:10;;;;;;;4.40;2.97;;;;;;;23.83;37.63;100627.22;815439;31;20628;-79
2021/09/01 15:17:59;;;;;;;4.95;3.22;;;;;;;23.80;37.95;100630.38;815261;47;20060;-79
2021/09/01 15:18:44;;;;;;;6.50;2.88;;;;;;;23.80;37.93;100625.78;815240;47;20034;-79
2021/09/01 15:19:35;;;;;;;4.90;3.10;;;;;;;23.85;37.98;100614.19;815110;47;20034;-78
2021/09/01 15:20:20;;;;;;;4.82;3.28;;;;;;;23.83;38.22;100621.78;814724;54;20047;-80
2021/09/01 15:21:09;;;;;;;5.55;3.25;;;;;;;23.82;38.36;100617.38;815077;54;20096;-79
2021/09/01 15:21:58;;;;;;;4.97;3.38;;;;;;;23.79;38.16;100624.09;815005;54;20038;-79
2021/09/01 15:22:48;;;;;;;7.00;3.28;;;;;;;23.66;38.01;100624.16;814964;47;20069;-78
2021/09/01 15:23:34;;;;;;;13.05;4.25;;;;;;;23.61;38.38;100618.53;815231;47;20038;-78
2021/09/01 15:24:23;;;;;;;7.13;3.95;;;;;;;23.54;38.77;100618.56;815060;54;20051;-79
2021/09/01 15:25:11;;;;;;;5.38;3.33;;;;;;;23.50;38.59;100625.47;816843;39;20314;-78
2021/09/01 15:25:59;;;;;;;5.07;3.47;;;;;;;23.56;38.59;100615.59;814995;54;20060;-77
2021/09/01 15:26:45;;;;;;;6.13;3.63;;;;;;;23.65;38.49;100622.47;815052;54;20123;-78
2021/09/01 15:27:34;;;;;;;6.00;3.28;;;;;;;23.55;38.18;100622.09;815120;54;20060;-79
2021/09/01 15:28:22;;;;;;;5.40;3.50;;;;;;;23.61;38.46;100626.72;815184;54;20050;-79
2021/09/01 15:29:10;;;;;;;5.97;3.30;;;;;;;23.57;38.13;100618.09;815117;54;20033;-79
2021/09/01 15:29:56;;;;;;;4.90;2.97;;;;;;;23.63;38.40;100621.84;815022;54;20038;-79
2021/09/01 15:30:45;;;;;;;5.22;3.22;;;;;;;23.49;38.21;100623.81;814967;54;20035;-78
2021/09/01 15:31:32;;;;;;;5.43;3.53;;;;;;;23.38;38.14;100622.59;815114;47;20039;-77
2021/09/01 15:32:21;;;;;;;7.70;3.72;;;;;;;23.44;38.16;100627.19;817739;39;20982;-80
2021/09/01 15:33:07;;;;;;;5.03;3.30;;;;;;;23.36;38.43;100627.44;814948;47;20094;-77
2021/09/01 15:33:56;;;;;;;5.45;3.40;;;;;;;23.39;38.27;100620.69;817344;39;20141;-79
2021/09/01 15:34:45;;;;;;;6.10;3.28;;;;;;;23.30;38.12;100620.13;815026;47;20852;-80
2021/09/01 15:35:34;;;;;;;5.28;3.58;;;;;;;23.26;37.89;100614.25;815265;54;20039;-78
2021/09/01 15:36:21;;;;;;;5.65;3.53;;;;;;;23.32;37.70;100618.84;815117;47;20046;-78
2021/09/01 15:37:12;;;;;;;5.80;3.67;;;;;;;23.32;37.46;100618.84;815074;47;20060;-78
2021/09/01 15:37:58;;;;;;;5.45;3.38;;;;;;;23.37;37.56;100618.19;815311;47;20143;-80
2021/09/01 15:38:47;;;;;;;5.93;3.58;;;;;;;23.33;37.22;100620.53;815241;47;20031;-77
2021/09/01 15:39:33;;;;;;;5.05;3.00;;;;;;;23.37;37.04;100615.47;814972;54;20042;-78
2021/09/01 15:40:22;;;;;;;5.07;3.10;;;;;;;23.43;37.20;100617.31;815185;54;20042;-77
2021/09/01 15:41:08;;;;;;;4.57;3.10;;;;;;;23.50;37.15;100615.44;815221;54;20145;-78
2021/09/01 15:42:00;;;;;;;5.07;3.22;;;;;;;23.43;36.65;100611.03;815138;54;20071;-77
2021/09/01 15:42:48;;;;;;;5.28;3.45;;;;;;;23.47;36.89;100620.47;815009;54;20038;-78
2021/09/01 15:43:39;;;;;;;5.40;3.13;;;;;;;23.47;36.60;100613.13;815253;54;20079;-80
2021/09/01 15:44:27;;;;;;;4.60;2.90;;;;;;;23.39;36.52;100618.81;815116;54;20098;-79
2021/09/01 15:45:18;;;;;;;4.95;2.95;;;;;;;23.50;36.84;100609.13;815053;47;20034;-78
2021/09/01 15:46:06;;;;;;;5.07;3.15;;;;;;;23.62;36.25;100612.84;815105;54;20793;-79
2021/09/01 15:46:57;;;;;;;5.47;3.35;;;;;;;23.75;35.94;100611.94;815239;47;20070;-79
2021/09/01 15:47:48;;;;;;;6.95;3.03;;;;;;;23.87;35.95;100613.97;815202;47;20098;-79
2021/09/01 15:48:46;;;;;;;5.63;3.60;;;;;;;23.97;35.79;100608.91;815152;47;20039;-77
2021/09/01 15:49:33;;;;;;;5.20;3.60;;;;;;;24.08;35.68;100608.19;815484;54;20075;-79
2021/09/01 15:50:24;;;;;;;4.88;2.72;;;;;;;24.19;35.63;100611.25;815212;47;20041;-80
2021/09/01 15:51:10;;;;;;;4.22;2.53;;;;;;;24.43;35.22;100607.72;815018;47;20034;-78
2021/09/01 15:52:00;;;;;;;4.95;3.08;;;;;;;24.35;35.11;100608.00;815210;54;20034;-78
2021/09/01 15:52:49;;;;;;;5.63;3.42;;;;;;;24.28;35.35;100609.91;815077;54;20045;-79
2021/09/01 15:53:38;;;;;;;5.63;3.15;;;;;;;24.24;35.44;100600.50;815184;54;20041;-77
2021/09/01 15:54:25;;;;;;;5.35;3.42;;;;;;;24.29;35.21;100595.22;814910;47;20065;-78
2021/09/01 15:55:15;;;;;;;4.70;3.10;;;;;;;24.40;35.35;100599.13;815158;54;20035;-79
2021/09/01 15:56:01;;;;;;;5.13;3.00;;;;;;;24.51;35.13;100598.41;815391;46;20147;-79
2021/09/01 15:56:50;;;;;;;5.88;2.80;;;;;;;24.57;35.54;100592.03;817151;46;20065;-78
2021/09/01 15:57:37;;;;;;;6.72;3.55;;;;;;;24.59;35.70;100592.66;815015;47;20078;-77
2021/09/01 15:58:28;;;;;;;4.43;2.67;;;;;;;24.71;35.22;100594.66;815111;54;20059;-78
2021/09/01 15:59:14;;;;;;;5.15;3.33;;;;;;;24.85;35.02;100595.34;815093;54;20039;-79
2021/09/01 16:00:04;;;;;;;6.30;3.17;;;;;;;24.96;35.09;100589.13;815274;54;20059;-80
2021/09/01 16:00:51;;;;;;;6.95;3.42;;;;;;;24.86;35.46;100597.03;815240;54;20094;-79
2021/09/01 16:01:40;;;;;;;4.32;2.90;;;;;;;24.76;35.68;100595.66;815123;47;20046;-78
2021/09/01 16:02:28;;;;;;;5.38;3.50;;;;;;;24.79;35.48;100599.84;814611;47;20047;-78
2021/09/01 16:03:19;;;;;;;6.93;3.25;;;;;;;24.86;35.70;100586.94;814609;54;20034;-80
2021/09/01 16:04:06;;;;;;;6.78;3.10;;;;;;;24.93;35.62;100595.09;815079;54;20153;-79
2021/09/01 16:04:56;;;;;;;5.07;3.25;;;;;;;25.00;35.57;100590.38;814972;54;20042;-79
2021/09/01 16:05:44;;;;;;;5.25;3.28;;;;;;;24.99;35.40;100585.97;815095;54;20054;-79
2021/09/01 16:06:33;;;;;;;4.68;2.60;;;;;;;24.99;35.57;100587.84;814951;47;20060;-79
2021/09/01 16:07:19;;;;;;;4.50;2.72;;;;;;;25.06;35.54;100583.16;815072;54;20072;-79
2021/09/01 16:08:11;;;;;;;4.30;2.80;;;;;;;24.89;35.46;100593.84;815126;54;20040;-79
2021/09/01 16:08:57;;;;;;;4.65;2.95;;;;;;;24.77;35.99;100591.84;815167;54;20030;-78
2021/09/01 16:09:45;;;;;;;4.55;3.10;;;;;;;24.68;35.87;100598.69;814977;54;20455;-79
2021/09/01 16:10:35;;;;;;;4.90;3.00;;;;;;;24.71;35.78;100594.66;815022;47;20136;-78
2021/09/01 16:11:25;;;;;;;5.53;2.97;;;;;;;24.63;36.18;100595.78;815161;46;20034;-82
2021/09/01 16:12:15;;;;;;;5.47;3.13;;;;;;;24.57;36.00;100589.31;815170;46;20094;-80
2021/09/01 16:13:06;;;;;;;5.13;3.08;;;;;;;24.42;36.64;100597.00;814987;54;20059;-81
2021/09/01 16:13:56;;;;;;;5.03;3.00;;;;;;;24.22;36.56;100597.16;815005;46;20038;-80
2021/09/01 16:14:48;;;;;;;4.55;3.15;;;;;;;24.11;36.95;100588.63;815177;47;20060;-81
2021/09/01 16:15:41;;;;;;;5.97;3.30;;;;;;;23.97;36.76;100592.53;815023;54;20087;-79
2021/09/01 16:16:33;;;;;;;4.82;2.88;;;;;;;23.98;36.91;100592.28;815021;54;20041;-80
2021/09/01 16:17:29;;;;;;;4.88;3.38;;;;;;;23.77;36.57;100593.44;815067;54;20045;-79
2021/09/01 16:18:26;;;;;;;5.95;3.58;;;;;;;23.64;36.66;100596.25;814988;54;20034;-80
2021/09/01 16:19:26;;;;;;;5.60;3.45;;;;;;;23.62;36.89;100590.16;814951;47;20094;-81
2021/09/01 16:20:18;;;;;;;5.35;3.72;;;;;;;23.58;37.04;100594.41;815149;54;21020;-78
2021/09/01 16:21:11;;;;;;;5.40;3.33;;;;;;;23.61;37.29;100599.44;814587;46;20042;-80
2021/09/01 16:22:05;;;;;;;4.97;3.00;;;;;;;23.56;37.67;100599.22;815083;54;20035;-79
2021/09/01 16:22:53;;;;;;;4.88;3.10;;;;;;;23.51;37.19;100595.28;815106;54;20090;-79
2021/09/01 16:23:49;;;;;;;6.68;3.58;;;;;;;23.45;37.56;100596.13;815142;54;20046;-79
2021/09/01 16:24:36;;;;;;;6.03;3.20;;;;;;;23.43;37.39;100598.22;815104;54;20039;-78
2021/09/01 16:25:26;;;;;;;5.00;2.95;;;;;;;23.43;37.17;100598.22;814902;54;20145;-79
2021/09/01 16:26:13;;;;;;;5.65;3.28;;;;;;;23.37;37.38;100599.09;815223;46;20038;-79
2021/09/01 16:27:03;;;;;;;6.85;3.10;;;;;;;23.32;37.29;100602.47;814789;47;20038;-78
2021/09/01 16:27:51;;;;;;;4.80;3.00;;;;;;;23.30;37.53;100595.56;814927;47;20042;-79
2021/09/01 16:28:43;;;;;;;5.18;3.17;;;;;;;23.28;37.44;100605.84;815261;54;20533;-78
2021/09/01 16:29:29;;;;;;;6.00;3.58;;;;;;;23.25;37.66;100601.69;815361;54;20115;-78
2021/09/01 16:30:21;;;;;;;5.65;3.38;;;;;;;23.27;37.72;100601.44;815199;54;20284;-77
2021/09/01 16:31:07;;;;;;;5.70;3.15;;;;;;;23.28;37.64;100606.72;815230;54;20119;-78
2021/09/01 16:31:57;;;;;;;5.05;3.30;;;;;;;23.28;37.57;100601.25;815365;54;20061;-78
2021/09/01 16:32:43;;;;;;;4.45;2.95;;;;;;;23.22;37.76;100607.56;815299;54;20166;-78
2021/09/01 16:33:33;;;;;;;5.25;3.20;;;;;;;23.24;37.72;100610.09;815156;46;20040;-77
2021/09/01 16:34:20;;;;;;;4.88;3.05;;;;;;;23.17;37.55;100610.88;815058;47;20035;-78
2021/09/01 16:35:14;;;;;;;4.75;3.13;;;;;;;23.14;37.64;100608.63;815332;54;20035;-78
2021/09/01 16:36:00;;;;;;;5.70;3.50;;;;;;;23.06;37.46;100609.66;815355;54;20034;-83
2021/09/01 16:36:51;;;;;;;6.22;3.17;;;;;;;23.05;37.45;100608.00;815362;54;20035;-79
2021/09/01 16:37:45;;;;;;;5.95;2.85;;;;;;;23.08;37.54;100612.19;815146;54;20058;-79
2021/09/01 16:38:37;;;;;;;6.18;3.35;;;;;;;23.08;37.76;100608.63;818857;39;20495;-77
2021/09/01 16:39:28;;;;;;;4.28;2.80;;;;;;;23.15;37.80;100602.06;816345;39;20764;-80
2021/09/01 16:40:19;;;;;;;5.22;3.05;;;;;;;23.18;37.50;100596.25;814922;54;20034;-80
2021/09/01 16:41:07;;;;;;;4.93;2.80;;;;;;;23.10;37.80;100598.31;815096;46;20046;-80
2021/09/01 16:41:57;;;;;;;5.05;3.42;;;;;;;23.14;37.55;100605.03;815071;54;20061;-79
2021/09/01 16:42:43;;;;;;;;;;;;;;;22.80;37.82;100598.84;815187;47;20039;-78
2021/09/01 16:43:34;;;;;;;5.13;3.03;;;;;;;22.93;37.93;100603.41;814881;47;19989;-81
2021/09/01 16:44:23;;;;;;;5.30;3.10;;;;;;;22.92;37.87;100602.56;814864;54;20042;-78
2021/09/01 16:45:12;;;;;;;4.82;3.05;;;;;;;23.00;38.20;100604.22;814257;54;20070;-80
2021/09/01 16:45:59;;;;;;;5.55;3.10;;;;;;;23.00;38.29;100602.34;816525;31;20684;-79
2021/09/01 16:46:49;;;;;;;5.00;3.28;;;;;;;23.11;38.30;100606.31;814476;54;20041;-80
2021/09/01 16:47:35;;;;;;;;;;;;;;;22.82;38.33;100608.47;815212;46;20055;-81
2021/09/01 16:48:26;;;;;;;5.20;3.05;;;;;;;22.89;38.39;100597.56;815054;54;20018;-78
2021/09/01 16:49:12;;;;;;;4.55;3.10;;;;;;;22.96;38.27;100613.88;814944;46;20038;-80
2021/09/01 16:50:00;;;;;;;4.80;3.10;;;;;;;22.96;38.64;100600.25;814933;54;20072;-79
2021/09/01 16:50:49;;;;;;;4.95;3.22;;;;;;;23.00;38.35;100607.78;814742;54;20027;-79
2021/09/01 16:51:43;;;;;;;6.72;3.40;;;;;;;23.02;38.15;100608.41;815150;54;21182;-80
2021/09/01 16:52:32;;;;;;;5.50;3.17;;;;;;;22.96;38.15;100613.88;814939;54;20042;-82
2021/09/01 16:53:23;;;;;;;5.95;3.30;;;;;;;22.96;38.17;100608.44;814953;47;20034;-79
2021/09/01 16:54:12;;;;;;;5.18;3.10;;;;;;;23.01;38.22;100601.28;814743;54;20038;-81
2021/09/01 16:55:07;;;;;;;5.38;3.28;;;;;;;22.99;38.48;100608.00;814649;46;20042;-80
2021/09/01 16:55:56;;;;;;;5.38;3.45;;;;;;;22.92;38.49;100607.19;814571;54;20048;-80
2021/09/01 16:56:53;;;;;;;4.97;3.58;;;;;;;22.93;38.87;100603.41;814790;54;20041;-82
2021/09/01 16:58:02;;;;;;;5.35;3.05;;;;;;;22.84;38.67;100605.53;814704;47;20038;-79
2021/09/01 16:58:54;;;;;;;5.88;3.30;;;;;;;22.74;38.98;100604.06;814474;47;20090;-80
2021/09/01 16:59:51;;;;;;;5.30;3.22;;;;;;;22.74;39.10;100605.97;814918;46;20034;-84
2021/09/01 17:00:49;;;;;;;5.35;3.30;;;;;;;22.71;39.26;100609.09;814545;47;20528;-80
2021/09/01 17:01:37;;;;;;;4.90;2.90;;;;;;;22.63;39.55;100603.88;814523;47;20114;-81
2021/09/01 17:02:27;;;;;;;5.55;3.47;;;;;;;22.71;39.51;100599.06;813874;47;20060;-82
2021/09/01 17:03:25;;;;;;;5.03;3.13;;;;;;;22.85;38.97;100608.06;814604;47;20038;-79
2021/09/01 17:04:20;;;;;;;5.45;3.08;;;;;;;22.86;39.02;100608.88;814973;46;20060;-80
2021/09/01 17:05:08;;;;;;;5.10;3.00;;;;;;;22.87;39.04;100605.09;814970;47;20666;-85
2021/09/01 17:05:59;;;;;;;5.28;2.90;;;;;;;22.80;39.29;100610.56;815063;47;20041;-84
2021/09/01 17:07:09;;;;;;;4.93;2.88;;;;;;;22.67;39.59;100607.88;814940;46;20039;-81
2021/09/01 17:07:57;;;;;;;5.82;3.33;;;;;;;22.68;39.27;100607.66;814833;54;20065;-84
2021/09/01 17:08:47;;;;;;;5.07;3.40;;;;;;;22.77;39.41;100605.53;815305;54;20034;-82
2021/09/01 17:09:35;;;;;;;;;;;;;;;22.59;39.72;100614.38;815434;54;20046;-80
2021/09/01 17:10:27;;;;;;;5.18;3.03;;;;;;;22.70;39.73;100616.47;816796;39;20407;-82
2021/09/01 17:11:13;;;;;;;5.13;3.15;;;;;;;22.68;39.65;100606.78;815256;54;20143;-85
2021/09/01 17:12:02;;;;;;;5.07;3.20;;;;;;;22.72;39.70;100602.59;814984;47;20034;-85
2021/09/01 17:12:51;;;;;;;5.10;3.40;;;;;;;22.80;39.42;100605.09;815348;47;20130;-86
2021/09/01 17:13:52;;;;;;;5.63;3.03;;;;;;;22.66;39.10;100606.19;815621;54;20034;-86
2021/09/01 17:14:41;;;;;;;4.57;2.80;;;;;;;22.70;39.42;100605.56;815239;47;20916;-84
2021/09/01 17:15:27;;;;;;;5.68;2.97;;;;;;;22.71;39.30;100603.66;815446;54;20094;-84
2021/09/01 17:16:16;;;;;;;4.80;2.80;;;;;;;22.79;39.17;100595.25;815171;54;20138;-82
2021/09/01 17:17:03;;;;;;;4.60;2.78;;;;;;;22.81;39.20;100601.34;815247;54;20096;-80
2021/09/01 17:17:52;;;;;;;5.63;2.38;;;;;;;22.72;39.42;100602.59;815258;54;20035;-81
2021/09/01 17:18:39;;;;;;;5.20;3.17;;;;;;;22.75;39.20;100607.66;815302;54;20038;-80
2021/09/01 17:19:28;;;;;;;4.82;3.13;;;;;;;22.77;39.69;100610.97;815452;54;20090;-85
2021/09/01 17:20:15;;;;;;;4.78;2.70;;;;;;;22.81;39.24;100606.78;815520;54;20042;-86
2021/09/01 17:21:06;;;;;;;5.53;3.45;;;;;;;22.66;39.45;100598.84;815254;47;20452;-84
2021/09/01 17:21:53;;;;;;;5.25;2.78;;;;;;;22.62;39.75;100603.06;815317;54;20045;-81
2021/09/01 17:22:43;;;;;;;5.78;3.50;;;;;;;22.59;39.73;100611.63;815517;54;20075;-86
2021/09/01 17:23:29;;;;;;;5.95;3.47;;;;;;;22.66;39.60;100611.63;815390;54;20069;-82
2021/09/01 17:24:17;;;;;;;4.57;3.00;;;;;;;22.66;39.46;100608.91;815083;47;20034;-85
2021/09/01 17:25:15;;;;;;;4.65;2.72;;;;;;;22.58;39.98;100609.97;815025;47;20098;-79
2021/09/01 17:26:09;;;;;;;5.03;3.17;;;;;;;22.53;39.56;100610.59;814870;47;20041;-83
2021/09/01 17:28:05;;;;;;;6.70;3.33;;;;;;;22.59;39.79;100614.38;816424;39;20716;-85
2021/09/01 17:29:25;;;;;;;4.13;2.58;;;;;;;22.59;39.90;100617.91;814897;47;20900;-80
2021/09/01 17:30:39;;;;;;;4.72;2.67;;;;;;;22.51;40.19;100617.31;815273;54;20090;-82
2021/09/01 17:31:49;;;;;;;5.22;3.13;;;;;;;22.44;40.49;100617.31;815154;54;20047;-81
2021/09/01 17:32:39;;;;;;;6.25;2.72;;;;;;;22.52;40.31;100614.38;815449;39;20582;-81
2021/09/01 17:33:34;;;;;;;4.72;2.70;;;;;;;22.59;39.83;100615.19;814931;47;20996;-81
2021/09/01 17:34:30;;;;;;;5.55;3.20;;;;;;;22.58;39.79;100615.41;814870;46;20038;-82
2021/09/01 17:35:22;;;;;;;5.00;2.83;;;;;;;22.63;39.78;100621.06;814901;54;20137;-85
2021/09/01 17:36:21;;;;;;;4.20;2.47;;;;;;;22.57;39.95;100609.13;814834;54;20049;-85
2021/09/01 17:37:11;;;;;;;5.28;2.90;;;;;;;22.65;39.83;100612.69;814805;46;20048;-80
2021/09/01 17:38:00;;;;;;;5.38;2.90;;;;;;;22.63;39.79;100612.06;814801;54;20038;-81
2021/09/01 17:38:51;;;;;;;4.97;3.00;;;;;;;22.59;39.94;100615.19;815275;39;20292;-79
2021/09/01 17:39:38;;;;;;;4.90;3.08;;;;;;;22.58;40.30;100613.50;814087;47;20149;-80
2021/09/01 17:40:36;;;;;;;4.60;2.88;;;;;;;22.54;40.30;100608.69;814800;47;20039;-86
2021/09/01 17:45:50;;;;;;;6.75;3.42;;;;;;;22.16;41.11;100607.41;814730;47;20049;-81
2021/09/01 17:47:02;;;;;;;5.05;3.17;;;;;;;22.25;40.87;100608.03;815001;39;20270;-82
2021/09/01 17:47:50;;;;;;;4.80;3.20;;;;;;;22.26;41.26;100615.16;814260;54;20042;-80
2021/09/01 17:48:46;;;;;;;4.88;2.95;;;;;;;22.32;41.36;100613.50;814437;47;21366;-83
2021/09/01 17:49:32;;;;;;;4.75;2.85;;;;;;;22.37;41.09;100611.00;814088;47;20094;-81
2021/09/01 17:50:32;;;;;;;6.45;3.10;;;;;;;22.31;41.50;100619.97;815055;39;20611;-80
2021/09/01 17:51:25;;;;;;;5.20;3.00;;;;;;;22.27;41.58;100614.13;814612;54;20053;-80
2021/09/01 17:52:17;;;;;;;5.63;3.30;;;;;;;22.25;41.56;100614.34;814823;47;20046;-80
2021/09/01 17:53:14;;;;;;;5.18;3.10;;;;;;;22.11;42.13;100615.34;814521;54;20046;-81
2021/09/01 17:54:05;;;;;;;6.10;3.00;;;;;;;22.18;41.65;100618.94;814113;46;20118;-81
2021/09/01 17:54:52;;;;;;;5.40;3.40;;;;;;;22.23;41.64;100613.69;814511;46;20050;-80
2021/09/01 17:55:42;;;;;;;5.45;3.25;;;;;;;22.19;41.99;100614.31;814478;54;20031;-79
2021/09/01 17:56:29;;;;;;;5.80;3.33;;;;;;;22.13;41.94;100611.41;814559;47;20186;-82
2021/09/01 17:57:21;;;;;;;5.18;2.90;;;;;;;22.12;42.01;100615.16;814582;54;20094;-81
2021/09/01 17:58:17;;;;;;;5.18;3.15;;;;;;;22.11;42.17;100615.34;814561;47;20052;-79
2021/09/01 17:59:06;;;;;;;5.63;3.35;;;;;;;22.11;42.19;100608.03;814876;54;20058;-84
2021/09/01 17:59:58;;;;;;;5.50;3.10;;;;;;;22.07;42.60;100620.38;815002;47;20035;-80
2021/09/01 18:00:47;;;;;;;5.18;3.22;;;;;;;22.12;42.32;100615.16;815059;54;20042;-81
2021/09/01 18:01:43;;;;;;;4.93;3.00;;;;;;;22.09;43.19;100614.75;815209;54;20082;-82
2021/09/01 18:02:29;;;;;;;5.10;3.20;;;;;;;22.04;43.24;100620.81;814824;47;20050;-79
2021/09/01 18:03:22;;;;;;;4.90;3.45;;;;;;;22.07;43.47;100619.53;814544;54;20112;-84
2021/09/01 18:04:08;;;;;;;5.65;3.40;;;;;;;22.04;43.58;100626.25;814578;54;20069;-80
2021/09/01 18:04:57;;;;;;;6.85;3.42;;;;;;;22.10;43.60;100624.59;814701;54;20050;-82
2021/09/01 18:05:43;;;;;;;6.63;3.40;;;;;;;22.04;44.14;100622.66;814743;47;20125;-79
2021/09/01 18:06:36;;;;;;;5.85;3.80;;;;;;;22.04;44.36;100619.94;818051;39;20095;-80
2021/09/01 18:07:22;;;;;;;5.70;3.20;;;;;;;21.95;45.09;100625.59;817439;39;20477;-79
2021/09/01 18:08:11;;;;;;;5.65;3.13;;;;;;;21.99;44.72;100625.19;814571;47;20034;-80
2021/09/01 18:08:57;;;;;;;4.97;3.20;;;;;;;21.90;45.29;100635.41;814726;54;20043;-81
2021/09/01 18:09:46;;;;;;;5.60;3.42;;;;;;;21.92;45.29;100626.00;815202;39;20668;-81
2021/09/01 18:10:32;;;;;;;5.47;3.25;;;;;;;21.89;45.78;100631.88;814406;54;20073;-80
2021/09/01 18:11:29;;;;;;;6.00;3.60;;;;;;;21.75;46.56;100630.13;814563;47;20034;-81
2021/09/01 18:12:18;;;;;;;5.65;3.47;;;;;;;21.77;46.31;100625.34;816117;39;21112;-81
2021/09/01 18:13:07;;;;;;;6.40;3.60;;;;;;;21.79;46.14;100634.13;814417;54;20050;-84
2021/09/01 18:13:53;;;;;;;5.32;3.35;;;;;;;21.77;46.24;100625.34;814615;54;20152;-80
2021/09/01 18:14:44;;;;;;;5.20;3.33;;;;;;;21.72;46.51;100634.13;814588;54;20035;-81
2021/09/01 18:15:42;;;;;;;5.22;3.47;;;;;;;21.68;47.27;100626.56;815668;39;20576;-81
2021/09/01 18:16:31;;;;;;;5.28;3.17;;;;;;;21.63;47.08;100633.44;814117;54;20046;-79
2021/09/01 18:17:17;;;;;;;7.43;3.70;;;;;;;21.63;47.32;100636.16;814517;54;20070;-79
2021/09/01 18:18:06;;;;;;;5.80;3.60;;;;;;;21.64;47.50;100635.13;814826;54;20046;-81
2021/09/01 18:18:53;;;;;;;6.00;3.60;;;;;;;21.59;47.68;100632.19;814989;54;20046;-85
2021/09/01 18:19:43;;;;;;;7.15;4.35;;;;;;;21.60;47.76;100638.44;814792;54;20046;-84
2021/09/01 18:20:28;;;;;;;5.65;4.25;;;;;;;;;;814635;54;20046;-84